Time;durP1;ratioP1;P1;durP2;ratioP2;P2;SDS_P1;SDS_P2;PMS_P1;PMS_P2;Temp;Humidity;BMP_temperature;BMP_pressure;BME280_temperature;BME280_humidity;BME280_pressure;Samples;Min_cycle;Max_cycle;Signal;HPM_P1;HPM_P2
2022/04/23 00:01:19;;;;;;;6.93;4.63;;;7.60;96.80;;;;;;5099034;28;20224;-78
2022/04/23 00:03:46;;;;;;;6.40;3.80;;;7.60;96.70;;;;;;5101385;28;20233;-78
2022/04/23 00:06:13;;;;;;;4.63;3.83;;;7.50;96.90;;;;;;5092076;28;20251;-78
2022/04/23 00:08:40;;;;;;;7.20;4.20;;;7.50;96.90;;;;;;5093163;27;20299;-78
2022/04/23 00:11:06;;;;;;;5.27;3.83;;;7.40;96.90;;;;;;5099918;28;20795;-78
2022/04/23 00:13:34;;;;;;;4.73;3.97;;;7.40;97.10;;;;;;5095701;28;20225;-78
2022/04/23 00:16:01;;;;;;;6.77;4.20;;;7.30;97.10;;;;;;5100769;28;20305;-78
2022/04/23 00:18:28;;;;;;;5.87;4.30;;;7.30;97.10;;;;;;5100107;28;20308;-78
2022/04/23 00:20:55;;;;;;;5.67;4.30;;;7.20;97.20;;;;;;5100399;27;20303;-79
2022/04/23 00:23:22;;;;;;;7.40;4.73;;;7.20;97.30;;;;;;5101313;27;20709;-78
2022/04/23 00:25:52;;;;;;;7.97;4.57;;;7.10;97.50;;;;;;5101497;28;20219;-79
2022/04/23 00:28:18;;;;;;;5.40;4.57;;;7.10;97.50;;;;;;5093686;28;20231;-78
2022/04/23 00:30:46;;;;;;;5.67;4.30;;;7.00;97.50;;;;;;5098910;28;20217;-78
2022/04/23 00:33:13;;;;;;;4.97;4.40;;;7.00;98.00;;;;;;5092923;28;21003;-78
2022/04/23 00:35:40;;;;;;;6.93;5.20;;;6.90;97.60;;;;;;5097622;28;20588;-78
2022/04/23 00:38:08;;;;;;;6.33;4.60;;;6.90;97.70;;;;;;5097766;28;20273;-78
2022/04/23 00:40:35;;;;;;;7.17;4.87;;;6.90;97.80;;;;;;5098906;28;20342;-77
2022/04/23 00:43:05;;;;;;;7.33;5.00;;;6.80;97.60;;;;;;5099085;28;20225;-77
2022/04/23 00:45:32;;;;;;;10.73;5.70;;;6.80;97.80;;;;;;5099746;28;20252;-77
2022/04/23 00:48:00;;;;;;;5.90;5.17;;;6.80;98.00;;;;;;5094601;28;20309;-78
2022/04/23 00:50:28;;;;;;;7.07;5.10;;;6.70;98.20;;;;;;5096061;28;20232;-77
2022/04/23 00:53:01;;;;;;;5.83;4.97;;;6.70;98.10;;;;;;5098686;28;20235;-79
2022/04/23 00:55:29;;;;;;;6.30;4.67;;;6.70;98.10;;;;;;5097032;28;20236;-79
2022/04/23 00:57:58;;;;;;;7.33;5.57;;;6.60;97.90;;;;;;5098482;28;20953;-78
2022/04/23 01:00:25;;;;;;;7.57;5.57;;;6.60;98.10;;;;;;5092732;28;20230;-79
2022/04/23 01:02:53;;;;;;;6.90;5.87;;;6.60;98.20;;;;;;5102893;28;20340;-78
2022/04/23 01:05:23;;;;;;;8.10;6.13;;;6.50;98.30;;;;;;5096458;28;20231;-78
2022/04/23 01:07:51;;;;;;;8.43;5.43;;;6.50;98.30;;;;;;5097335;28;20235;-79
2022/04/23 01:10:18;;;;;;;7.70;5.80;;;6.50;98.40;;;;;;5096354;28;20220;-78
2022/04/23 01:12:46;;;;;;;8.93;6.13;;;6.40;98.50;;;;;;5099493;28;20218;-78
2022/04/23 01:15:14;;;;;;;9.00;6.10;;;6.40;98.60;;;;;;5095321;28;20247;-78
2022/04/23 01:17:42;;;;;;;9.63;6.80;;;6.30;98.50;;;;;;5099566;28;20220;-78
2022/04/23 01:20:12;;;;;;;9.20;6.43;;;6.30;98.50;;;;;;5099229;28;20303;-78
2022/04/23 01:22:40;;;;;;;8.37;6.50;;;6.30;98.70;;;;;;5095978;28;20308;-78
2022/04/23 01:25:10;;;;;;;10.60;6.30;;;6.30;98.70;;;;;;5096419;27;20361;-77
2022/04/23 01:27:38;;;;;;;9.33;7.17;;;6.20;98.70;;;;;;5090973;28;20587;-77
2022/04/23 01:30:07;;;;;;;8.60;6.70;;;6.20;99.10;;;;;;5099540;28;20219;-78
2022/04/23 01:32:34;;;;;;;9.03;6.53;;;6.20;99.10;;;;;;5096544;28;20232;-79
2022/04/23 01:35:01;;;;;;;10.20;7.27;;;6.10;99.00;;;;;;5093021;28;20654;-78
2022/04/23 01:37:29;;;;;;;9.67;6.70;;;6.10;98.90;;;;;;5097438;28;20231;-78
2022/04/23 01:39:56;;;;;;;10.17;7.07;;;6.10;99.30;;;;;;5102354;28;21054;-78
2022/04/23 01:42:23;;;;;;;9.33;6.97;;;6.00;99.20;;;;;;5094649;28;20702;-78
2022/04/23 01:44:51;;;;;;;7.93;6.87;;;6.00;99.40;;;;;;5095490;28;20312;-78
2022/04/23 01:47:19;;;;;;;9.63;7.10;;;6.00;99.40;;;;;;5091415;28;20220;-78
2022/04/23 01:49:46;;;;;;;9.40;7.00;;;5.90;99.30;;;;;;5093639;28;20225;-78
2022/04/23 01:52:13;;;;;;;8.90;7.03;;;5.90;99.50;;;;;;5094368;28;20239;-77
2022/04/23 01:54:42;;;;;;;8.77;7.80;;;5.90;99.30;;;;;;5098893;27;20255;-78
2022/04/23 01:57:09;;;;;;;8.97;6.93;;;5.80;99.50;;;;;;5093668;28;20224;-78
2022/04/23 01:59:35;;;;;;;8.70;7.50;;;5.80;99.50;;;;;;5094460;28;20224;-79
2022/04/23 02:02:02;;;;;;;8.53;7.63;;;5.80;99.50;;;;;;5097501;28;20231;-78
2022/04/23 02:04:29;;;;;;;10.87;7.67;;;5.70;99.80;;;;;;5095701;28;20237;-78
2022/04/23 02:06:55;;;;;;;10.70;7.97;;;5.70;99.60;;;;;;5095536;28;20307;-78
2022/04/23 02:09:23;;;;;;;12.87;8.60;;;5.70;99.80;;;;;;5090794;28;20356;-79
2022/04/23 02:11:51;;;;;;;10.20;8.07;;;5.60;99.90;;;;;;5101279;28;20702;-79
2022/04/23 02:14:18;;;;;;;13.70;9.87;;;5.60;99.90;;;;;;5099838;28;20224;-79
2022/04/23 02:16:45;;;;;;;13.50;9.70;;;5.60;99.90;;;;;;5095797;28;20229;-78
2022/04/23 02:19:13;;;;;;;16.83;9.43;;;5.60;99.90;;;;;;5092496;27;20284;-77
2022/04/23 02:21:40;;;;;;;15.00;9.40;;;5.50;99.90;;;;;;5097672;28;20754;-77
2022/04/23 02:24:08;;;;;;;14.47;9.83;;;5.50;99.90;;;;;;5103517;28;20229;-77
2022/04/23 02:26:35;;;;;;;15.77;10.17;;;5.50;99.90;;;;;;5095448;28;20226;-77
2022/04/23 02:29:03;;;;;;;13.60;9.60;;;5.40;99.90;;;;;;5112676;27;20328;-77
2022/04/23 02:31:30;;;;;;;14.57;10.40;;;5.40;99.90;;;;;;5096788;28;20258;-78
2022/04/23 02:33:57;;;;;;;13.00;9.73;;;5.40;99.90;;;;;;5113972;27;20219;-77
2022/04/23 02:36:24;;;;;;;14.53;10.33;;;5.40;99.90;;;;;;5099007;28;20319;-78
2022/04/23 02:38:51;;;;;;;14.50;10.20;;;5.30;99.90;;;;;;5099699;27;20768;-77
2022/04/23 02:41:18;;;;;;;13.00;9.57;;;5.30;99.90;;;;;;5100889;27;20227;-78
2022/04/23 02:43:45;;;;;;;21.23;11.03;;;5.30;99.90;;;;;;5104380;27;20229;-78
2022/04/23 02:46:15;;;;;;;14.43;10.60;;;5.30;99.90;;;;;;5101655;27;20227;-77
2022/04/23 02:48:42;;;;;;;14.13;10.20;;;5.20;99.90;;;;;;5101292;27;20734;-77
2022/04/23 02:51:08;;;;;;;17.33;10.53;;;5.30;99.90;;;;;;5100922;28;20227;-77
2022/04/23 02:53:35;;;;;;;12.70;9.80;;;5.30;99.90;;;;;;5104582;27;20238;-78
2022/04/23 02:56:02;;;;;;;13.77;10.80;;;5.20;99.90;;;;;;5103226;27;20223;-76
2022/04/23 02:58:30;;;;;;;15.40;11.40;;;5.20;99.90;;;;;;5101272;28;20240;-78
2022/04/23 03:00:57;;;;;;;14.87;10.57;;;5.20;99.90;;;;;;5099929;27;20268;-79
2022/04/23 03:03:26;;;;;;;15.10;11.13;;;5.20;99.90;;;;;;5098207;27;20227;-79
2022/04/23 03:05:53;;;;;;;16.13;11.40;;;5.10;99.90;;;;;;5101174;27;20238;-79
2022/04/23 03:08:23;;;;;;;15.80;11.83;;;5.10;99.90;;;;;;5105705;27;20312;-79
2022/04/23 03:10:50;;;;;;;14.07;10.93;;;5.10;99.90;;;;;;5098457;28;20233;-77
2022/04/23 03:13:17;;;;;;;14.80;11.13;;;5.10;99.90;;;;;;5103541;28;20236;-77
2022/04/23 03:15:44;;;;;;;15.67;11.17;;;5.10;99.90;;;;;;5098161;28;20288;-77
2022/04/23 03:18:13;;;;;;;17.77;11.37;;;5.00;99.90;;;;;;5094193;28;20893;-77
2022/04/23 03:20:42;;;;;;;16.37;11.37;;;5.10;99.90;;;;;;5099307;28;20303;-77
2022/04/23 03:23:09;;;;;;;15.87;11.53;;;5.00;99.90;;;;;;5093454;27;20229;-77
2022/04/23 03:25:36;;;;;;;19.13;12.33;;;5.00;99.90;;;;;;5105856;28;20223;-77
2022/04/23 03:28:04;;;;;;;22.27;11.90;;;5.00;99.90;;;;;;5102473;28;20241;-77
2022/04/23 03:30:31;;;;;;;15.27;12.03;;;5.00;99.90;;;;;;5095777;28;20237;-77
2022/04/23 03:32:59;;;;;;;17.20;12.43;;;4.90;99.90;;;;;;5101484;28;20245;-77
2022/04/23 03:35:27;;;;;;;16.87;12.73;;;4.90;99.90;;;;;;5096775;28;20293;-77
2022/04/23 03:37:55;;;;;;;17.30;11.50;;;4.90;99.90;;;;;;5106899;27;20699;-78
2022/04/23 03:40:22;;;;;;;18.67;12.30;;;4.90;99.90;;;;;;5104489;28;20255;-78
2022/04/23 03:42:49;;;;;;;18.33;12.80;;;4.90;99.90;;;;;;5102170;28;20739;-78
2022/04/23 03:45:18;;;;;;;17.53;12.43;;;4.90;99.90;;;;;;5102153;28;20227;-77
2022/04/23 03:47:46;;;;;;;16.70;12.17;;;4.90;99.90;;;;;;5103471;28;20218;-78
2022/04/23 03:50:13;;;;;;;17.77;12.47;;;4.90;99.90;;;;;;5094153;28;20227;-77
2022/04/23 03:52:40;;;;;;;17.60;12.90;;;4.80;99.90;;;;;;5090658;27;20327;-77
2022/04/23 03:55:09;;;;;;;19.27;12.80;;;4.80;99.90;;;;;;5102317;28;20224;-77
2022/04/23 03:57:44;;;;;;;16.20;12.33;;;4.80;99.90;;;;;;5102643;27;20219;-78
2022/04/23 04:00:13;;;;;;;18.07;12.67;;;4.80;99.90;;;;;;5105513;28;20309;-78
2022/04/23 04:02:40;;;;;;;18.03;12.37;;;4.90;99.90;;;;;;5102089;28;20308;-77
2022/04/23 04:05:08;;;;;;;18.50;13.67;;;4.80;99.90;;;;;;5100948;27;20223;-77
2022/04/23 04:07:34;;;;;;;18.83;13.73;;;4.80;99.90;;;;;;5103648;28;20238;-78
2022/04/23 04:10:02;;;;;;;19.10;13.60;;;4.80;99.90;;;;;;5102315;28;20247;-78
2022/04/23 04:12:29;;;;;;;20.50;14.03;;;4.80;99.90;;;;;;5107082;27;20251;-78
2022/04/23 04:14:57;;;;;;;18.70;13.13;;;4.70;99.90;;;;;;5097531;28;20224;-78
2022/04/23 04:17:25;;;;;;;18.93;13.40;;;4.80;99.90;;;;;;5101041;27;20222;-77
2022/04/23 04:19:53;;;;;;;21.83;15.17;;;4.70;99.90;;;;;;5104135;27;20228;-78
2022/04/23 04:22:22;;;;;;;19.90;14.53;;;4.70;99.90;;;;;;5106227;27;20231;-77
2022/04/23 04:24:49;;;;;;;24.57;15.03;;;4.70;99.90;;;;;;5103241;27;20588;-76
2022/04/23 04:27:15;;;;;;;20.53;14.53;;;4.70;99.90;;;;;;5096842;27;20216;-77
2022/04/23 04:29:44;;;;;;;20.30;14.53;;;4.70;99.90;;;;;;5103164;27;20800;-76
2022/04/23 04:32:12;;;;;;;20.80;14.63;;;4.70;99.90;;;;;;5100985;28;20275;-78
2022/04/23 04:34:39;;;;;;;21.17;14.47;;;4.70;99.90;;;;;;5100267;28;20237;-78
2022/04/23 04:37:07;;;;;;;18.03;13.93;;;4.70;99.90;;;;;;5100423;27;21370;-79
2022/04/23 04:39:36;;;;;;;18.80;14.40;;;4.70;99.90;;;;;;5100288;28;20239;-77
2022/04/23 04:42:03;;;;;;;20.73;14.33;;;4.80;99.90;;;;;;5101256;28;20235;-78
2022/04/23 04:44:30;;;;;;;19.83;14.00;;;4.80;99.90;;;;;;5098027;28;20570;-77
2022/04/23 04:46:58;;;;;;;19.10;14.17;;;4.90;99.90;;;;;;5097453;27;20696;-76
2022/04/23 04:49:25;;;;;;;20.00;14.50;;;4.90;99.90;;;;;;5095428;28;20232;-77
2022/04/23 04:51:53;;;;;;;19.63;14.40;;;4.90;99.90;;;;;;5098270;28;20259;-78
2022/04/23 04:54:21;;;;;;;19.70;13.27;;;5.00;99.90;;;;;;5104375;28;20262;-77
2022/04/23 04:56:48;;;;;;;17.00;13.23;;;5.00;99.90;;;;;;5101739;27;20236;-77
2022/04/23 04:59:15;;;;;;;21.63;14.83;;;5.10;99.90;;;;;;5096643;28;20747;-78
2022/04/23 05:01:42;;;;;;;17.93;13.33;;;5.10;99.90;;;;;;5103117;28;20227;-78
2022/04/23 05:04:10;;;;;;;17.87;13.43;;;5.10;99.90;;;;;;5104811;28;20233;-77
2022/04/23 05:06:37;;;;;;;16.27;12.83;;;5.20;99.90;;;;;;5101007;28;20219;-78
2022/04/23 05:09:03;;;;;;;19.50;13.97;;;5.20;99.90;;;;;;5096829;28;20226;-79
2022/04/23 05:11:30;;;;;;;20.13;14.23;;;5.30;99.90;;;;;;5098055;28;20307;-77
2022/04/23 05:13:57;;;;;;;19.67;13.70;;;5.30;99.90;;;;;;5100215;28;20240;-76
2022/04/23 05:16:24;;;;;;;16.60;13.87;;;5.40;99.90;;;;;;5095663;28;20226;-77
2022/04/23 05:18:51;;;;;;;18.17;13.33;;;5.40;99.90;;;;;;5094255;28;20280;-77
2022/04/23 05:21:19;;;;;;;19.23;13.57;;;5.50;99.90;;;;;;5095500;28;20226;-76
2022/04/23 05:23:46;;;;;;;19.83;13.83;;;5.50;99.90;;;;;;5097503;28;20237;-77
2022/04/23 05:26:13;;;;;;;17.70;13.17;;;5.60;99.90;;;;;;5090432;28;20655;-77
2022/04/23 05:28:41;;;;;;;18.90;13.50;;;5.70;99.90;;;;;;5105975;28;20728;-77
2022/04/23 05:31:08;;;;;;;18.00;13.57;;;5.70;99.90;;;;;;5088671;28;20219;-77
2022/04/23 05:33:35;;;;;;;19.83;14.07;;;5.80;99.90;;;;;;5101720;28;20576;-77
2022/04/23 05:36:04;;;;;;;17.40;12.90;;;5.80;99.90;;;;;;5097249;28;20230;-77
2022/04/23 05:38:32;;;;;;;17.20;13.30;;;5.90;99.90;;;;;;5097566;28;20226;-77
2022/04/23 05:40:58;;;;;;;17.00;12.30;;;5.90;99.90;;;;;;5095509;28;20231;-77
2022/04/23 05:43:25;;;;;;;15.47;12.87;;;6.00;99.90;;;;;;5096044;28;20235;-77
2022/04/23 05:45:52;;;;;;;16.27;13.10;;;6.00;99.90;;;;;;5092477;28;20238;-77
2022/04/23 05:48:18;;;;;;;19.63;13.07;;;6.10;99.90;;;;;;5098010;28;20249;-77
2022/04/23 05:50:45;;;;;;;15.47;13.00;;;6.20;99.90;;;;;;5093427;28;20293;-77
2022/04/23 05:53:12;;;;;;;17.27;13.07;;;6.30;99.90;;;;;;5095077;28;20232;-77
2022/04/23 05:55:40;;;;;;;17.57;12.97;;;6.30;99.90;;;;;;5098476;28;20241;-77
2022/04/23 05:58:07;;;;;;;17.47;12.63;;;6.40;99.90;;;;;;5100119;27;20223;-77
2022/04/23 06:00:34;;;;;;;15.20;13.20;;;6.50;99.90;;;;;;5104696;27;20229;-77
2022/04/23 06:03:00;;;;;;;15.80;12.23;;;6.60;99.90;;;;;;5101592;28;20224;-77
2022/04/23 06:05:28;;;;;;;17.60;12.33;;;6.70;99.90;;;;;;5097603;28;20237;-77
2022/04/23 06:07:55;;;;;;;15.53;12.17;;;6.80;99.90;;;;;;5105032;28;20220;-77
2022/04/23 06:10:22;;;;;;;16.83;12.87;;;6.90;99.90;;;;;;5104371;27;20238;-77
2022/04/23 06:12:50;;;;;;;14.80;11.73;;;7.00;99.90;;;;;;5101964;27;20236;-77
2022/04/23 06:15:16;;;;;;;14.27;11.77;;;7.20;99.90;;;;;;5101629;27;20240;-78
2022/04/23 06:17:45;;;;;;;14.97;11.73;;;7.40;99.90;;;;;;5094939;28;20236;-77
2022/04/23 06:20:12;;;;;;;13.10;11.17;;;7.60;99.90;;;;;;5098984;27;20318;-78
2022/04/23 06:22:38;;;;;;;15.37;11.83;;;7.80;99.90;;;;;;5102082;28;21008;-77
2022/04/23 06:25:06;;;;;;;14.60;12.00;;;8.10;99.90;;;;;;5104802;27;20218;-77
2022/04/23 06:27:33;;;;;;;12.33;11.03;;;8.40;99.90;;;;;;5099136;28;20349;-77
2022/04/23 06:30:01;;;;;;;13.67;9.83;;;8.80;99.90;;;;;;5103369;27;20224;-79
2022/04/23 06:32:28;;;;;;;12.47;10.73;;;9.20;99.90;;;;;;5103006;27;20229;-78
2022/04/23 06:34:55;;;;;;;11.67;10.47;;;9.60;99.80;;;;;;5105546;28;20226;-78
2022/04/23 06:37:22;;;;;;;12.00;10.03;;;9.90;99.20;;;;;;5099820;28;20236;-78
2022/04/23 06:39:50;;;;;;;11.10;9.87;;;10.30;98.40;;;;;;5097244;27;20746;-77
2022/04/23 06:42:17;;;;;;;10.97;9.60;;;10.40;97.60;;;;;;5103125;28;20715;-78
2022/04/23 06:44:45;;;;;;;10.70;9.27;;;10.70;97.50;;;;;;5096543;28;20848;-77
2022/04/23 06:47:15;;;;;;;11.07;9.63;;;10.80;97.20;;;;;;5102467;27;20237;-77
2022/04/23 06:49:41;;;;;;;10.77;9.57;;;10.90;96.50;;;;;;5104476;28;20743;-78
2022/04/23 06:52:08;;;;;;;9.77;8.67;;;11.00;96.30;;;;;;5099049;28;20299;-78
2022/04/23 06:54:35;;;;;;;9.33;8.40;;;11.10;96.10;;;;;;5101832;28;20328;-78
2022/04/23 06:57:01;;;;;;;10.00;8.97;;;11.10;95.90;;;;;;5101253;28;20223;-77
2022/04/23 06:59:29;;;;;;;9.77;8.50;;;11.10;95.50;;;;;;5101931;27;20233;-77
2022/04/23 07:02:01;;;;;;;9.57;8.53;;;11.20;95.60;;;;;;5095741;28;20279;-76
2022/04/23 07:04:30;;;;;;;10.27;7.87;;;11.20;95.50;;;;;;5104536;28;20233;-77
2022/04/23 07:06:56;;;;;;;9.07;8.17;;;11.20;95.40;;;;;;5100928;27;20706;-75
2022/04/23 07:09:23;;;;;;;9.40;8.10;;;11.30;94.40;;;;;;5095051;28;20354;-75
2022/04/23 07:11:51;;;;;;;8.83;7.83;;;11.40;94.70;;;;;;5102432;28;20242;-76
2022/04/23 07:14:18;;;;;;;10.23;7.63;;;11.40;94.80;;;;;;5098107;28;20650;-78
2022/04/23 07:16:47;;;;;;;8.37;7.57;;;11.50;93.20;;;;;;5101821;28;20303;-77
2022/04/23 07:19:14;;;;;;;8.43;7.57;;;11.60;93.70;;;;;;5103263;27;20711;-77
2022/04/23 07:21:42;;;;;;;8.03;7.23;;;11.70;93.80;;;;;;5105022;27;20231;-78
2022/04/23 07:24:11;;;;;;;10.17;7.50;;;11.90;93.60;;;;;;5100292;27;20251;-77
2022/04/23 07:26:40;;;;;;;8.17;7.33;;;12.10;93.90;;;;;;5102221;27;20244;-76
2022/04/23 07:29:10;;;;;;;7.50;6.13;;;12.40;93.30;;;;;;5102117;28;20240;-78
2022/04/23 07:31:38;;;;;;;6.67;6.07;;;12.80;93.40;;;;;;5102387;28;20921;-77
2022/04/23 07:39:37;;;;;;;6.03;5.07;;;14.70;92.30;;;;;;5095131;28;20240;-77
2022/04/23 07:42:06;;;;;;;5.83;5.27;;;15.50;91.00;;;;;;5095921;27;20826;-76
2022/04/23 07:44:33;;;;;;;5.47;4.97;;;16.10;89.70;;;;;;5098613;28;20693;-77
2022/04/23 07:46:59;;;;;;;6.10;5.50;;;16.80;89.10;;;;;;5099968;28;20229;-78
2022/04/23 07:49:27;;;;;;;5.37;4.87;;;17.30;86.30;;;;;;5107753;27;20222;-78
2022/04/23 07:51:55;;;;;;;5.20;4.63;;;17.90;84.40;;;;;;5110423;28;20226;-78
2022/04/23 07:54:22;;;;;;;5.17;4.67;;;18.40;82.80;;;;;;5098860;28;20225;-78
2022/04/23 07:56:49;;;;;;;5.00;4.53;;;18.90;80.60;;;;;;5104486;28;20924;-78
2022/04/23 07:59:16;;;;;;;5.82;4.90;;;19.40;79.60;;;;;;5092185;28;20305;-78
2022/04/23 08:01:43;;;;;;;4.78;4.38;;;19.80;77.00;;;;;;5108505;28;20260;-78
2022/04/23 08:04:10;;;;;;;5.55;4.20;;;20.20;75.10;;;;;;5100213;28;20236;-78
2022/04/23 08:06:37;;;;;;;4.90;4.50;;;20.60;73.10;;;;;;5100675;28;20306;-78
2022/04/23 08:09:05;;;;;;;4.80;4.32;;;20.80;72.00;;;;;;5096051;28;20226;-78
2022/04/23 08:11:31;;;;;;;4.85;4.45;;;21.10;69.20;;;;;;5103399;28;20318;-78
2022/04/23 08:13:58;;;;;;;4.57;4.18;;;21.40;68.00;;;;;;5097535;28;20222;-78
2022/04/23 08:16:27;;;;;;;4.57;4.18;;;21.50;66.10;;;;;;5101343;28;20253;-78
2022/04/23 08:18:54;;;;;;;4.40;4.00;;;21.60;64.60;;;;;;5104445;28;20255;-77
2022/04/23 08:21:22;;;;;;;4.88;4.10;;;21.60;64.60;;;;;;5102388;27;20722;-78
2022/04/23 08:23:49;;;;;;;4.40;4.00;;;21.70;65.30;;;;;;5100301;28;20249;-77
2022/04/23 08:26:17;;;;;;;4.32;3.92;;;21.80;63.90;;;;;;5106590;28;20773;-78
2022/04/23 08:31:28;;;;;;;4.15;3.75;;;22.20;61.50;;;;;;5093642;28;20241;-78
2022/04/23 08:34:01;;;;;;;4.28;3.88;;;22.20;59.60;;;;;;5103418;28;20290;-76
2022/04/23 08:36:35;;;;;;;4.03;3.72;;;22.30;59.40;;;;;;5101466;28;21733;-78
2022/04/23 08:39:04;;;;;;;5.43;3.40;;;22.30;59.30;;;;;;5098506;28;20228;-78
2022/04/23 08:41:34;;;;;;;3.50;3.20;;;22.40;58.50;;;;;;5103507;28;20242;-78
2022/04/23 08:44:05;;;;;;;3.58;3.28;;;22.60;58.10;;;;;;5099837;28;20319;-78
2022/04/23 08:46:36;;;;;;;3.85;3.55;;;22.80;58.10;;;;;;5101180;28;20214;-78
2022/04/23 08:49:09;;;;;;;3.45;3.15;;;23.00;56.30;;;;;;5098258;28;20244;-78
2022/04/23 08:51:37;;;;;;;3.95;3.30;;;23.30;55.60;;;;;;5098863;28;20528;-78
2022/04/23 08:54:08;;;;;;;3.20;2.90;;;23.50;56.70;;;;;;5098195;28;20233;-78
2022/04/23 08:56:38;;;;;;;3.40;3.10;;;23.70;55.50;;;;;;5098137;28;20229;-78
2022/04/23 08:59:07;;;;;;;3.35;3.05;;;23.90;55.00;;;;;;5100083;28;20386;-78
2022/04/23 09:01:36;;;;;;;3.53;3.22;;;24.10;54.30;;;;;;5093843;28;20420;-81
2022/04/23 09:04:03;;;;;;;3.33;3.03;;;24.20;54.30;;;;;;5100634;28;20222;-78
2022/04/23 09:06:41;;;;;;;4.13;3.25;;;24.30;54.10;;;;;;5097319;28;20236;-78
2022/04/23 09:09:10;;;;;;;3.03;2.83;;;24.50;52.50;;;;;;5104249;28;20271;-77
2022/04/23 09:11:40;;;;;;;3.30;2.97;;;24.60;52.40;;;;;;5099114;28;20242;-78
2022/04/23 09:14:09;;;;;;;3.65;3.35;;;24.70;51.80;;;;;;5099014;28;20328;-78
2022/04/23 09:25:10;;;;;;;3.67;3.38;;;24.80;49.40;;;;;;5095150;28;20255;-78
2022/04/23 09:27:38;;;;;;;3.53;3.22;;;24.80;50.70;;;;;;5100126;28;20237;-77
2022/04/23 09:30:07;;;;;;;3.80;3.30;;;24.80;50.30;;;;;;5101171;28;21047;-80
2022/04/23 09:32:35;;;;;;;4.70;3.83;;;24.80;50.70;;;;;;5103984;28;20710;-78
2022/04/23 09:35:09;;;;;;;4.32;3.92;;;25.00;51.00;;;;;;5106490;28;20246;-78
2022/04/23 09:40:22;;;;;;;3.88;3.50;;;25.30;49.70;;;;;;5099141;27;20241;-78
2022/04/23 09:43:01;;;;;;;3.83;3.53;;;25.50;49.20;;;;;;5101689;28;20225;-79
2022/04/23 09:45:30;;;;;;;3.47;3.17;;;25.70;48.40;;;;;;5098921;28;20257;-79
2022/04/23 09:47:57;;;;;;;4.25;3.50;;;25.80;49.40;;;;;;5103534;27;20225;-79
2022/04/23 09:50:24;;;;;;;4.00;3.70;;;26.00;48.30;;;;;;5099119;28;20298;-79
2022/04/23 09:52:51;;;;;;;3.90;3.60;;;26.10;46.80;;;;;;5095864;27;20226;-78
2022/04/23 09:55:22;;;;;;;4.03;3.63;;;26.00;46.60;;;;;;5096425;27;20392;-79
2022/04/23 09:57:49;;;;;;;4.78;4.38;;;25.80;45.30;;;;;;5100702;28;20234;-79
2022/04/23 10:00:18;;;;;;;3.85;3.55;;;25.50;44.30;;;;;;5095032;27;20328;-79
2022/04/23 10:02:47;;;;;;;4.40;4.00;;;25.10;45.20;;;;;;5104750;28;20229;-78
2022/04/23 10:05:17;;;;;;;4.25;3.85;;;24.70;45.60;;;;;;5103312;28;20282;-78
2022/04/23 10:07:48;;;;;;;4.35;3.67;;;24.40;46.30;;;;;;5099417;28;20217;-79
2022/04/23 10:10:17;;;;;;;3.63;3.33;;;24.20;46.30;;;;;;5091147;28;20444;-79
2022/04/23 10:12:46;;;;;;;5.05;4.00;;;24.10;46.30;;;;;;5099977;28;20789;-79
2022/04/23 10:15:14;;;;;;;3.85;3.30;;;24.20;46.50;;;;;;5116021;27;20800;-79
2022/04/23 10:17:43;;;;;;;5.10;3.60;;;24.20;46.30;;;;;;5101062;28;20291;-79
2022/04/23 10:20:13;;;;;;;4.25;3.92;;;24.20;45.50;;;;;;5095745;28;20219;-79
2022/04/23 10:22:53;;;;;;;4.30;4.00;;;24.30;45.70;;;;;;5099460;28;20258;-79
2022/04/23 10:25:28;;;;;;;5.25;3.90;;;24.30;46.30;;;;;;5104805;28;20441;-79
2022/04/23 10:27:57;;;;;;;3.60;3.30;;;24.20;46.90;;;;;;5104176;28;20227;-79
2022/04/23 10:30:27;;;;;;;5.50;3.20;;;24.30;46.50;;;;;;5103691;28;20591;-79
2022/04/23 10:32:55;;;;;;;3.28;2.97;;;24.40;46.00;;;;;;5098608;28;20218;-79
2022/04/23 10:35:35;;;;;;;3.97;3.58;;;24.40;46.00;;;;;;5101041;28;20226;-79
2022/04/23 10:38:20;;;;;;;3.70;3.38;;;24.50;45.80;;;;;;5104130;27;20230;-79
2022/04/23 10:40:51;;;;;;;4.75;3.70;;;24.70;45.90;;;;;;5096537;28;20329;-79
2022/04/23 10:43:19;;;;;;;4.38;3.30;;;24.90;46.40;;;;;;5103049;28;20715;-79
2022/04/23 10:45:48;;;;;;;3.50;3.20;;;25.20;46.30;;;;;;5096684;28;20406;-79
2022/04/23 10:48:32;;;;;;;5.28;3.53;;;25.30;45.40;;;;;;5095146;28;20230;-79
2022/04/23 10:51:07;;;;;;;4.50;4.10;;;25.40;44.70;;;;;;5098663;28;20226;-79
2022/04/23 10:53:54;;;;;;;3.70;3.40;;;25.40;44.00;;;;;;5096355;28;20226;-79
2022/04/23 10:56:23;;;;;;;3.47;3.17;;;25.50;43.90;;;;;;5097845;28;20222;-80
2022/04/23 10:58:50;;;;;;;4.05;3.47;;;25.40;44.50;;;;;;5099489;27;20294;-79
2022/04/23 11:01:22;;;;;;;3.90;3.60;;;25.40;44.10;;;;;;5097488;28;20304;-79
2022/04/23 11:04:23;;;;;;;3.95;3.22;;;25.30;43.20;;;;;;5098900;27;21688;-79
2022/04/23 11:12:32;;;;;;;3.95;3.55;;;24.60;43.20;;;;;;5099575;27;20225;-78
2022/04/23 11:15:00;;;;;;;3.70;3.40;;;24.40;44.30;;;;;;5095092;28;20728;-77
2022/04/23 11:17:54;;;;;;;4.53;4.13;;;24.30;44.70;;;;;;5096030;28;20233;-77
2022/04/23 11:20:30;;;;;;;4.30;3.90;;;24.20;44.40;;;;;;5089109;28;20233;-77
2022/04/23 11:23:00;;;;;;;4.50;4.10;;;24.10;44.40;;;;;;5100590;27;20218;-78
2022/04/23 11:25:27;;;;;;;4.07;3.75;;;23.90;43.70;;;;;;5098938;27;20790;-77
2022/04/23 11:28:00;;;;;;;4.68;4.03;;;23.70;44.30;;;;;;5091771;28;20244;-78
2022/04/23 11:30:30;;;;;;;4.78;4.38;;;23.40;43.90;;;;;;5093989;28;20644;-78
2022/04/23 11:33:11;;;;;;;4.25;3.85;;;23.00;43.80;;;;;;5097809;28;20218;-78
2022/04/23 11:35:39;;;;;;;4.43;4.03;;;22.70;45.00;;;;;;5097564;28;20247;-78
2022/04/23 11:38:06;;;;;;;5.63;5.13;;;22.50;45.50;;;;;;5102945;27;20260;-78
2022/04/23 11:40:35;;;;;;;4.95;4.55;;;22.50;45.20;;;;;;5103926;27;20232;-78
2022/04/23 11:43:01;;;;;;;6.07;4.35;;;22.40;45.00;;;;;;5096428;28;20226;-78
2022/04/23 11:45:28;;;;;;;10.63;4.35;;;22.30;45.70;;;;;;5096469;27;20240;-78
2022/04/23 11:47:55;;;;;;;4.68;4.28;;;22.20;45.30;;;;;;5100275;27;20754;-77
2022/04/23 11:50:23;;;;;;;4.30;3.90;;;22.20;45.40;;;;;;5094000;28;20230;-77
2022/04/23 11:52:59;;;;;;;4.63;4.22;;;22.20;45.60;;;;;;5100900;27;20599;-77
2022/04/23 11:55:27;;;;;;;4.00;3.70;;;22.30;45.40;;;;;;5094891;28;20219;-77
2022/04/23 11:57:56;;;;;;;4.63;4.00;;;22.30;46.00;;;;;;5098188;28;20229;-77
2022/04/23 12:00:24;;;;;;;4.55;4.03;;;22.50;46.00;;;;;;5101673;28;20287;-77
2022/04/23 12:02:52;;;;;;;5.57;3.85;;;22.70;45.60;;;;;;5103395;28;20234;-77
2022/04/23 12:05:24;;;;;;;4.70;4.15;;;22.80;45.20;;;;;;5100473;28;20299;-77
2022/04/23 12:07:51;;;;;;;4.30;3.90;;;22.80;44.90;;;;;;5097243;27;20579;-77
2022/04/23 12:10:25;;;;;;;4.40;4.00;;;22.90;45.20;;;;;;5096763;28;20640;-77
2022/04/23 12:12:56;;;;;;;4.10;3.70;;;23.00;45.00;;;;;;5101099;28;20254;-77
2022/04/23 12:15:24;;;;;;;4.45;4.05;;;23.10;45.60;;;;;;5097126;27;20886;-77
2022/04/23 12:17:52;;;;;;;4.47;4.07;;;23.30;45.70;;;;;;5097495;28;20973;-77
2022/04/23 12:20:20;;;;;;;6.57;5.55;;;23.50;45.70;;;;;;5094852;27;20584;-78
2022/04/23 12:22:59;;;;;;;7.13;6.50;;;23.70;46.10;;;;;;5088878;28;20308;-78
2022/04/23 12:25:27;;;;;;;9.38;6.82;;;23.70;45.30;;;;;;5091807;28;20230;-78
2022/04/23 12:27:59;;;;;;;8.48;7.03;;;23.60;46.10;;;;;;5093026;27;20253;-78
2022/04/23 12:41:39;;;;;;;9.48;6.70;;;21.90;47.40;;;;;;5096443;28;20832;-78
2022/04/23 12:44:20;;;;;;;8.13;7.10;;;21.50;48.00;;;;;;5093746;28;20309;-78
2022/04/23 12:46:57;;;;;;;7.38;6.68;;;21.10;48.60;;;;;;5095275;28;20236;-78
2022/04/23 12:49:24;;;;;;;7.40;6.50;;;20.80;48.80;;;;;;5102286;28;20229;-77
2022/04/23 12:51:54;;;;;;;7.72;6.97;;;20.50;49.30;;;;;;5103994;27;20214;-77
2022/04/23 12:54:22;;;;;;;8.88;7.88;;;20.10;50.00;;;;;;5097535;27;20786;-78
2022/04/23 12:56:51;;;;;;;7.88;7.15;;;20.00;50.50;;;;;;5091464;28;20276;-78
2022/04/23 12:59:18;;;;;;;8.27;7.47;;;19.80;50.80;;;;;;5093219;28;20252;-77
2022/04/23 13:01:45;;;;;;;8.98;7.03;;;19.70;51.10;;;;;;5091993;28;20226;-78
2022/04/23 13:04:13;;;;;;;7.80;7.00;;;19.70;51.40;;;;;;5098634;28;20234;-78
2022/04/23 13:09:25;;;;;;;8.43;7.50;;;19.50;51.80;;;;;;5101840;28;20643;-78
2022/04/23 13:11:54;;;;;;;8.10;7.30;;;19.50;51.80;;;;;;5103356;28;20226;-78
2022/04/23 13:14:21;;;;;;;8.23;7.43;;;19.40;51.70;;;;;;5095889;28;20964;-77
2022/04/23 13:16:48;;;;;;;7.83;7.07;;;19.30;51.80;;;;;;5096889;28;20704;-78
2022/04/23 13:19:15;;;;;;;7.30;6.70;;;19.20;51.90;;;;;;5089680;27;20223;-80
2022/04/23 13:21:42;;;;;;;8.18;7.38;;;19.00;52.00;;;;;;5099126;28;20225;-76
2022/04/23 13:24:09;;;;;;;10.18;6.88;;;18.90;52.10;;;;;;5093818;28;20229;-78
2022/04/23 13:26:36;;;;;;;9.15;7.32;;;18.80;52.60;;;;;;5095104;28;20596;-78
2022/04/23 13:29:04;;;;;;;8.43;7.63;;;18.80;53.00;;;;;;5091630;28;20219;-78
2022/04/23 13:31:30;;;;;;;9.00;7.45;;;18.80;52.50;;;;;;5098644;28;20237;-78